首页
METAR-TAF:

METAR-TAF

机场 :

Slave Lake, 艾伯塔, 加拿大

纬度: 55-18N, 经度: 114-47W, 海拔: 581米

当前天气观测

该预报发布于1小时和3分钟前的18:00 UTC
风速8节,风向
温度 14°C
湿度 55%
气压 1010 hPa
能見度: 14.5公里
天空无云

METAR: CYZH 021800Z AUTO 36008KT 9SM CLR 14/05 A2982 RMK SLP111 DENSITY ALT 2300FT

时间: 13:03 (19:03 UTC)

预报

该预报发布于25分钟前的18:38 UTC
预报有效从02日的 19点(UTC)到 03日的 07点(UTC)
风速3节,风向多变
能見度: 10公里
少量云层高于10000英尺
成为
从 02日的 19点(UTC)到 02日的 21点(UTC)
风速12节,风向西
从 03日的 0200点(UTC)
风速5节,风向西
能見度: 10公里
散云层高于8000英尺
短暂存在
从 03日的 02点(UTC)到 03日的 05点(UTC)
能見度: 10公里
多云层高于8000英尺
小阵雨
从 03日的 0500点(UTC)
风速5节,风向西
能見度: 10公里
散云层高于3000英尺
阴天层高于6000英尺
短暂存在
从 03日的 05点(UTC)到 03日的 07点(UTC)
能見度: 10公里
多云层高于3000英尺
阴天层高于6000英尺
小雨

TAF: CYZH 021838Z 0219/0307 VRB03KT P6SM FEW100 BECMG 0219/0221 27012KT FM030200 26005KT P6SM SCT080 TEMPO 0302/0305 P6SM -SHRA BKN080 FM030500 27005KT P6SM SCT030 OVC060 TEMPO 0305/0307 P6SM -RA BKN030 OVC060 RMK FCST BASED ON AUTO OBS. NXT FCST BY 030100Z

超过4000个机场的气象观测和天气预报(METAR&TAF报告)。

可查询的气象台以黄色和红色小点在地图上表示。

将鼠标移到小点上方,可查看气象台名称。

然后点击查看天气观测和预报。

如需切换地图:点击带黑十字的绿色按钮放大地图;点击带横线的绿色按钮缩小地图;或者点击绿色箭头查看邻近地区的地图。


METAR-TAF: